Time;durP1;ratioP1;P1;durP2;ratioP2;P2;SDS_P1;SDS_P2;PMS_P1;PMS_P2;Temp;Humidity;BMP_temperature;BMP_pressure;BME280_temperature;BME280_humidity;BME280_pressure;Samples;Min_cycle;Max_cycle;Signal;HPM_P1;HPM_P2
2023/09/21 00:00:39;;;;;;;3.43;2.30;;;16.10;98.00;;;;;;5035369;28;20980;-69
2023/09/21 00:03:08;;;;;;;4.70;2.60;;;16.00;98.00;;;;;;5035092;28;20508;-69
2023/09/21 00:05:39;;;;;;;4.90;2.90;;;15.90;98.00;;;;;;5035229;28;20463;-70
2023/09/21 00:08:06;;;;;;;6.03;2.40;;;15.90;98.00;;;;;;5035107;28;20810;-70
2023/09/21 00:10:35;;;;;;;3.37;2.33;;;15.90;98.00;;;;;;5035005;28;20478;-70
2023/09/21 00:13:05;;;;;;;4.70;2.77;;;16.00;98.00;;;;;;5034806;28;20451;-69
2023/09/21 00:15:33;;;;;;;4.03;2.63;;;15.90;98.00;;;;;;5035076;28;20924;-70
2023/09/21 00:18:00;;;;;;;4.07;2.60;;;15.80;98.00;;;;;;5034972;28;20449;-69
2023/09/21 00:20:29;;;;;;;3.20;2.30;;;15.80;98.00;;;;;;5017241;28;20959;-69
2023/09/21 00:22:58;;;;;;;5.37;2.60;;;15.70;98.00;;;;;;5034632;28;20455;-69
2023/09/21 00:25:27;;;;;;;4.13;2.70;;;15.50;98.00;;;;;;5034744;28;20449;-69
2023/09/21 00:27:56;;;;;;;4.33;2.50;;;15.60;98.00;;;;;;5034676;28;20540;-70
2023/09/21 00:30:23;;;;;;;3.30;2.77;;;15.50;98.00;;;;;;5034884;28;20518;-69
2023/09/21 00:32:50;;;;;;;4.40;2.87;;;15.50;98.00;;;;;;5034444;28;20971;-70
2023/09/21 00:35:18;;;;;;;5.30;2.70;;;15.50;98.00;;;;;;5034797;28;20478;-69
2023/09/21 00:37:46;;;;;;;3.27;2.50;;;15.60;98.00;;;;;;5034823;28;20454;-69
2023/09/21 00:40:23;;;;;;;3.63;2.63;;;15.50;98.00;;;;;;5033971;28;20881;-71
2023/09/21 00:42:51;;;;;;;4.30;2.60;;;15.50;98.00;;;;;;5016887;28;20961;-71
2023/09/21 00:45:21;;;;;;;4.50;2.80;;;15.60;98.00;;;;;;5034524;28;20588;-69
2023/09/21 00:47:51;;;;;;;7.47;2.90;;;15.60;98.00;;;;;;5034131;28;20948;-69
2023/09/21 00:50:22;;;;;;;4.30;2.70;;;15.70;98.00;;;;;;5034213;28;20490;-69
2023/09/21 00:52:52;;;;;;;3.30;2.40;;;15.60;98.00;;;;;;5034296;28;20447;-69
2023/09/21 00:55:23;;;;;;;5.03;2.83;;;15.60;98.00;;;;;;5016667;28;20462;-70
2023/09/21 00:57:55;;;;;;;5.40;2.80;;;15.50;98.00;;;;;;5033958;28;20463;-69
2023/09/21 01:00:29;;;;;;;3.50;2.40;;;15.50;98.00;;;;;;5033991;28;20454;-71
2023/09/21 01:03:00;;;;;;;3.60;2.50;;;15.50;98.00;;;;;;5033964;28;20467;-69
2023/09/21 01:05:28;;;;;;;5.10;2.53;;;15.60;98.00;;;;;;5034074;28;20454;-70
2023/09/21 01:07:56;;;;;;;2.93;2.30;;;15.60;98.00;;;;;;5033527;28;20451;-70
2023/09/21 01:10:24;;;;;;;4.70;2.67;;;15.50;98.00;;;;;;5016064;28;20483;-70
2023/09/21 01:12:51;;;;;;;3.80;2.50;;;15.40;98.00;;;;;;5033778;28;20458;-70
2023/09/21 01:15:21;;;;;;;5.70;2.50;;;15.40;98.00;;;;;;5033920;28;20458;-70
2023/09/21 01:17:50;;;;;;;5.80;2.80;;;15.30;98.00;;;;;;5033766;28;20442;-69
2023/09/21 01:20:34;;;;;;;4.57;2.73;;;15.30;98.00;;;;;;5033325;28;20462;-69
2023/09/21 01:23:11;;;;;;;3.43;2.47;;;15.40;98.00;;;;;;5033520;28;20446;-71
2023/09/21 01:25:41;;;;;;;3.90;2.53;;;15.40;98.00;;;;;;5033625;28;20454;-70
2023/09/21 01:28:09;;;;;;;3.87;2.53;;;15.30;98.00;;;;;;5033415;28;20455;-69
2023/09/21 01:30:38;;;;;;;4.13;2.63;;;15.20;98.00;;;;;;5016030;28;20466;-70
2023/09/21 01:33:08;;;;;;;5.97;2.70;;;15.10;98.00;;;;;;5033361;28;20517;-70
2023/09/21 01:35:37;;;;;;;3.97;2.63;;;15.10;98.00;;;;;;5033373;28;20462;-70
2023/09/21 01:38:06;;;;;;;6.37;2.80;;;15.00;98.00;;;;;;5033204;28;20532;-69
2023/09/21 01:40:34;;;;;;;3.70;2.57;;;14.90;98.00;;;;;;5033335;28;20878;-70
2023/09/21 01:43:06;;;;;;;3.40;2.63;;;15.00;98.00;;;;;;5033235;28;20978;-71
2023/09/21 01:45:33;;;;;;;3.73;2.67;;;15.10;98.00;;;;;;5016100;28;20475;-70
2023/09/21 01:48:01;;;;;;;3.20;2.60;;;15.10;98.00;;;;;;5033096;28;20454;-70
2023/09/21 01:50:29;;;;;;;3.57;2.40;;;14.90;98.00;;;;;;5032350;28;20517;-70
2023/09/21 01:52:56;;;;;;;3.73;2.40;;;14.90;98.00;;;;;;5033045;28;20450;-69
2023/09/21 01:55:23;;;;;;;3.63;2.50;;;15.10;98.00;;;;;;5033021;28;20508;-69
2023/09/21 01:57:51;;;;;;;6.17;2.37;;;15.20;98.00;;;;;;5033039;28;20493;-69
2023/09/21 02:00:26;;;;;;;3.10;2.27;;;15.00;98.00;;;;;;5032917;28;20458;-70
2023/09/21 02:02:54;;;;;;;4.00;2.80;;;15.20;98.00;;;;;;5033057;28;20467;-71
2023/09/21 02:05:24;;;;;;;4.67;2.80;;;15.10;98.00;;;;;;5032862;28;20447;-70
2023/09/21 02:07:52;;;;;;;4.43;2.80;;;15.00;98.00;;;;;;5033026;28;20459;-71
2023/09/21 02:10:19;;;;;;;4.30;2.67;;;14.90;98.00;;;;;;5032793;28;20481;-70
2023/09/21 02:12:55;;;;;;;5.70;2.33;;;14.80;98.00;;;;;;5032656;28;20458;-69
2023/09/21 02:15:24;;;;;;;3.40;2.20;;;14.80;98.00;;;;;;5032732;28;20492;-70
2023/09/21 02:17:55;;;;;;;3.50;2.43;;;14.90;98.00;;;;;;5032615;28;20501;-70
2023/09/21 02:20:22;;;;;;;4.20;2.80;;;15.00;98.00;;;;;;5032278;28;20965;-69
2023/09/21 02:22:51;;;;;;;3.33;2.53;;;15.00;98.00;;;;;;5032521;28;20447;-69
2023/09/21 02:25:19;;;;;;;4.33;2.40;;;15.10;98.00;;;;;;5033002;28;20451;-69
2023/09/21 02:27:49;;;;;;;4.77;2.50;;;15.30;98.00;;;;;;5032290;28;20462;-69
2023/09/21 02:30:21;;;;;;;3.90;2.60;;;15.20;98.00;;;;;;5032333;28;20463;-70
2023/09/21 02:32:50;;;;;;;5.10;2.57;;;15.30;98.00;;;;;;5015475;28;20983;-69
2023/09/21 02:35:19;;;;;;;3.33;2.27;;;15.20;98.00;;;;;;5032289;28;20466;-69
2023/09/21 02:37:47;;;;;;;3.70;2.33;;;15.20;98.00;;;;;;5031800;28;20463;-69
2023/09/21 02:40:15;;;;;;;3.80;2.70;;;15.30;98.00;;;;;;5032119;28;20462;-69
2023/09/21 02:42:49;;;;;;;3.37;2.57;;;15.40;98.00;;;;;;5032199;28;20486;-69
2023/09/21 02:45:17;;;;;;;5.63;3.10;;;15.40;98.00;;;;;;5032116;28;20542;-69
2023/09/21 02:47:45;;;;;;;3.70;2.70;;;15.60;98.00;;;;;;5031907;28;20451;-69
2023/09/21 02:50:21;;;;;;;4.77;2.67;;;15.60;98.00;;;;;;5031941;28;20512;-70
2023/09/21 02:52:52;;;;;;;4.40;2.70;;;15.70;98.00;;;;;;5032210;28;20466;-69
2023/09/21 02:55:20;;;;;;;6.00;2.90;;;15.50;98.00;;;;;;5014948;28;20455;-70
2023/09/21 02:57:49;;;;;;;3.90;2.67;;;15.30;98.00;;;;;;5031980;28;20454;-68
2023/09/21 03:00:29;;;;;;;4.33;2.60;;;15.30;98.00;;;;;;5031885;28;20474;-69
2023/09/21 03:02:59;;;;;;;3.60;2.33;;;15.20;98.00;;;;;;5031623;28;20497;-69
2023/09/21 03:05:29;;;;;;;3.80;2.40;;;15.20;98.00;;;;;;5031793;28;20948;-70
2023/09/21 03:07:56;;;;;;;4.10;2.60;;;15.20;98.00;;;;;;5031701;28;20459;-69
2023/09/21 03:10:25;;;;;;;4.27;2.20;;;15.40;98.00;;;;;;5031804;28;21208;-69
2023/09/21 03:12:53;;;;;;;4.27;2.70;;;15.50;98.00;;;;;;5031777;28;20513;-70
2023/09/21 03:15:22;;;;;;;3.77;2.60;;;15.60;98.00;;;;;;5031876;28;20462;-70
2023/09/21 03:17:53;;;;;;;3.90;2.63;;;15.60;98.00;;;;;;5031868;28;20454;-70
2023/09/21 03:20:28;;;;;;;3.50;2.57;;;15.60;98.00;;;;;;5031864;28;20463;-69
2023/09/21 03:22:58;;;;;;;4.53;2.77;;;15.60;98.00;;;;;;5031711;28;20489;-69
2023/09/21 03:25:31;;;;;;;3.33;2.50;;;15.70;98.00;;;;;;5031932;28;20545;-71
2023/09/21 03:27:59;;;;;;;6.30;2.70;;;15.60;98.00;;;;;;5213124;22;20483;-69
2023/09/21 03:30:27;;;;;;;6.50;3.07;;;15.90;98.00;;;;;;5011357;28;20455;-70
2023/09/21 03:32:54;;;;;;;4.37;2.77;;;15.80;98.00;;;;;;5011137;28;20455;-69
2023/09/21 03:35:26;;;;;;;4.07;2.50;;;15.70;98.00;;;;;;5011230;28;20455;-70
2023/09/21 03:37:54;;;;;;;2.77;2.10;;;15.60;98.00;;;;;;5009970;28;20478;-70
2023/09/21 03:40:25;;;;;;;4.90;2.70;;;15.50;98.00;;;;;;5011384;28;20459;-69
2023/09/21 03:42:52;;;;;;;4.80;2.80;;;15.30;98.00;;;;;;5011036;28;20491;-70
2023/09/21 03:45:20;;;;;;;4.80;2.43;;;15.20;98.00;;;;;;5011277;28;20447;-70
2023/09/21 03:47:47;;;;;;;4.57;2.97;;;15.30;98.00;;;;;;5011054;28;20836;-69
2023/09/21 03:50:17;;;;;;;2.93;2.40;;;15.20;98.00;;;;;;5011320;28;20459;-70
2023/09/21 03:52:45;;;;;;;3.77;2.60;;;15.20;98.00;;;;;;5011107;28;20455;-69
2023/09/21 03:55:15;;;;;;;4.10;2.43;;;15.30;98.00;;;;;;5011344;28;20462;-70
2023/09/21 03:57:46;;;;;;;5.40;3.17;;;15.30;98.00;;;;;;5010234;28;20465;-69
2023/09/21 04:00:26;;;;;;;3.73;2.60;;;15.50;98.00;;;;;;5011325;28;20451;-70
2023/09/21 04:02:54;;;;;;;4.30;2.60;;;15.40;98.00;;;;;;5010937;28;20883;-71
2023/09/21 04:05:24;;;;;;;3.83;2.87;;;15.30;98.00;;;;;;5011267;28;20494;-68
2023/09/21 04:07:51;;;;;;;3.90;2.83;;;15.40;98.00;;;;;;5010074;28;20826;-69
2023/09/21 04:10:18;;;;;;;3.47;2.57;;;15.40;98.00;;;;;;5011077;28;20466;-70
2023/09/21 04:12:48;;;;;;;5.27;2.90;;;15.60;98.00;;;;;;5010985;28;20455;-70
2023/09/21 04:15:17;;;;;;;3.60;2.60;;;15.70;98.00;;;;;;5012131;28;20470;-69
2023/09/21 04:17:44;;;;;;;5.90;2.80;;;15.70;98.00;;;;;;5014309;28;20949;-69
2023/09/21 04:20:12;;;;;;;5.70;3.60;;;15.80;98.00;;;;;;5014321;28;20464;-69
2023/09/21 04:22:41;;;;;;;4.30;2.77;;;15.70;98.00;;;;;;5015415;28;20850;-69
2023/09/21 04:25:09;;;;;;;5.57;2.60;;;15.50;98.00;;;;;;5014175;28;20462;-69
2023/09/21 04:27:39;;;;;;;4.77;2.60;;;15.50;98.00;;;;;;5014550;28;20475;-70
2023/09/21 04:30:14;;;;;;;3.80;2.47;;;15.40;98.00;;;;;;5014518;28;20455;-70
2023/09/21 04:32:41;;;;;;;4.40;2.80;;;15.40;98.00;;;;;;5015135;28;20988;-70
2023/09/21 04:35:10;;;;;;;3.87;2.60;;;15.30;98.00;;;;;;5015207;28;20455;-70
2023/09/21 04:37:38;;;;;;;4.63;2.97;;;15.20;98.00;;;;;;5013722;28;20471;-70
2023/09/21 04:40:09;;;;;;;4.57;2.83;;;15.20;98.00;;;;;;5012790;28;20490;-70
2023/09/21 04:42:38;;;;;;;3.70;2.73;;;15.10;98.00;;;;;;5013835;28;21017;-69
2023/09/21 04:45:09;;;;;;;3.40;2.50;;;15.30;98.00;;;;;;5014194;28;20455;-69
2023/09/21 04:47:36;;;;;;;3.63;2.50;;;15.40;98.00;;;;;;5012687;28;20460;-70
2023/09/21 04:50:05;;;;;;;4.87;2.80;;;15.50;98.00;;;;;;5013896;28;20459;-70
2023/09/21 04:52:32;;;;;;;4.27;2.87;;;15.50;98.00;;;;;;5013698;28;20467;-71
2023/09/21 04:55:00;;;;;;;3.23;2.47;;;15.50;98.00;;;;;;5011670;28;20456;-70
2023/09/21 04:57:28;;;;;;;3.63;2.57;;;15.30;98.00;;;;;;5013939;28;20521;-70
2023/09/21 04:59:56;;;;;;;3.80;2.67;;;15.20;98.00;;;;;;5013531;28;20456;-70
2023/09/21 05:02:24;;;;;;;3.70;2.47;;;15.10;98.00;;;;;;5013661;28;21032;-69
2023/09/21 05:04:51;;;;;;;4.90;2.70;;;15.10;98.00;;;;;;5013618;28;20954;-70
2023/09/21 05:07:18;;;;;;;4.30;2.77;;;15.20;98.00;;;;;;5013732;28;20448;-70
2023/09/21 05:09:45;;;;;;;3.63;2.30;;;15.30;98.00;;;;;;5013603;28;20996;-69
2023/09/21 05:12:13;;;;;;;6.53;2.50;;;15.40;98.00;;;;;;5013421;28;20452;-69
2023/09/21 05:14:41;;;;;;;5.87;2.90;;;15.40;98.00;;;;;;5013445;28;20466;-69
2023/09/21 05:17:09;;;;;;;5.13;2.97;;;15.30;98.00;;;;;;5013152;28;20460;-69
2023/09/21 05:19:38;;;;;;;4.03;2.70;;;15.20;98.00;;;;;;5012245;28;20451;-69
2023/09/21 05:22:05;;;;;;;4.20;2.80;;;15.20;98.00;;;;;;5011928;28;21358;-70
2023/09/21 05:24:32;;;;;;;4.97;3.00;;;15.40;98.00;;;;;;5013220;28;20804;-69
2023/09/21 05:27:00;;;;;;;4.30;2.67;;;15.40;98.00;;;;;;5012822;28;20966;-70
2023/09/21 05:29:27;;;;;;;3.87;2.70;;;15.60;98.00;;;;;;5012962;28;20963;-70
2023/09/21 05:31:54;;;;;;;3.57;2.70;;;15.70;98.00;;;;;;5011760;28;20456;-70
2023/09/21 05:34:21;;;;;;;4.40;3.03;;;15.90;98.00;;;;;;5013378;28;20452;-69
2023/09/21 05:36:51;;;;;;;4.20;2.80;;;15.90;98.00;;;;;;5013027;28;20949;-69
2023/09/21 05:39:19;;;;;;;4.33;2.80;;;15.90;98.00;;;;;;5013275;28;20463;-69
2023/09/21 05:41:46;;;;;;;9.70;4.30;;;15.80;98.00;;;;;;5011855;28;20475;-68
2023/09/21 05:44:14;;;;;;;5.60;3.20;;;15.80;98.00;;;;;;5012936;28;20859;-69
2023/09/21 05:46:41;;;;;;;5.13;3.03;;;15.80;98.00;;;;;;5012809;28;20459;-68
2023/09/21 05:49:09;;;;;;;4.87;3.07;;;15.80;98.00;;;;;;5012790;28;20467;-68
2023/09/21 05:51:39;;;;;;;5.37;3.00;;;15.90;98.00;;;;;;5012689;28;20861;-69
2023/09/21 05:54:09;;;;;;;6.10;3.00;;;16.00;98.00;;;;;;5012943;28;20463;-67
2023/09/21 05:56:36;;;;;;;3.13;2.33;;;16.20;98.00;;;;;;5011475;28;20455;-68
2023/09/21 05:59:07;;;;;;;4.10;2.80;;;16.60;98.00;;;;;;5013057;28;20547;-68
2023/09/21 06:01:34;;;;;;;4.20;2.50;;;16.60;98.00;;;;;;5012978;28;20791;-68
2023/09/21 06:04:02;;;;;;;7.87;3.40;;;16.70;98.00;;;;;;5013165;28;20850;-69
2023/09/21 06:06:30;;;;;;;4.37;2.87;;;16.90;98.00;;;;;;5012970;28;20452;-69
2023/09/21 06:08:57;;;;;;;7.37;3.47;;;17.00;98.00;;;;;;5012951;28;20462;-69
2023/09/21 06:11:26;;;;;;;5.03;3.07;;;17.00;98.00;;;;;;5013157;28;21080;-68
2023/09/21 06:13:54;;;;;;;5.23;2.90;;;16.90;98.00;;;;;;5012759;28;20495;-73
2023/09/21 06:16:21;;;;;;;6.13;3.20;;;16.80;98.00;;;;;;5013053;28;20463;-73
2023/09/21 06:18:49;;;;;;;5.13;3.40;;;16.90;98.00;;;;;;5012578;28;20962;-73
2023/09/21 06:21:17;;;;;;;5.10;3.27;;;17.00;98.00;;;;;;5012575;28;20456;-73
2023/09/21 06:23:44;;;;;;;5.63;3.37;;;16.80;98.00;;;;;;5012330;28;20488;-73
2023/09/21 06:26:14;;;;;;;4.80;3.17;;;16.80;98.00;;;;;;5012604;28;20452;-73
2023/09/21 06:28:44;;;;;;;5.90;3.13;;;16.70;98.00;;;;;;5012458;28;20475;-73
2023/09/21 06:31:12;;;;;;;7.03;3.00;;;16.80;98.00;;;;;;5012561;28;20946;-73
2023/09/21 06:33:40;;;;;;;7.00;3.03;;;16.80;98.00;;;;;;5012636;28;20459;-72
2023/09/21 06:36:14;;;;;;;7.07;3.03;;;16.90;98.00;;;;;;5011340;28;20458;-73
2023/09/21 06:38:42;;;;;;;9.67;3.90;;;17.10;98.00;;;;;;5012271;28;20545;-73
2023/09/21 06:41:09;;;;;;;5.90;3.20;;;17.20;98.00;;;;;;5012514;28;20487;-72
2023/09/21 06:43:38;;;;;;;8.37;3.87;;;17.40;98.00;;;;;;5012368;28;20537;-72
2023/09/21 06:46:07;;;;;;;7.33;3.43;;;17.30;98.00;;;;;;5012385;28;20474;-72
2023/09/21 06:48:34;;;;;;;5.07;3.13;;;17.20;98.00;;;;;;5012437;28;20451;-72
2023/09/21 06:51:04;;;;;;;5.10;3.53;;;17.40;98.00;;;;;;5012446;28;20452;-73
2023/09/21 06:53:31;;;;;;;6.73;3.30;;;17.40;98.00;;;;;;5012443;28;20458;-72
2023/09/21 06:55:58;;;;;;;5.13;3.30;;;17.40;98.00;;;;;;5012397;28;20451;-72
2023/09/21 06:58:25;;;;;;;5.67;3.30;;;17.30;98.00;;;;;;5012417;28;20486;-72
2023/09/21 07:00:52;;;;;;;4.07;2.80;;;17.30;98.00;;;;;;5012489;28;20459;-73
2023/09/21 07:03:21;;;;;;;6.13;3.20;;;17.40;98.00;;;;;;5011155;28;20510;-73
2023/09/21 07:05:48;;;;;;;6.40;3.83;;;17.60;98.00;;;;;;5012627;28;20440;-73
2023/09/21 07:08:15;;;;;;;4.80;2.90;;;17.60;98.00;;;;;;5012235;28;20455;-73
2023/09/21 07:10:44;;;;;;;4.53;2.90;;;17.60;98.00;;;;;;5012488;28;20455;-73
2023/09/21 07:13:11;;;;;;;5.27;3.47;;;17.80;98.00;;;;;;5012274;28;20444;-73
2023/09/21 07:15:39;;;;;;;4.33;2.97;;;18.00;98.00;;;;;;5012173;28;20447;-72
2023/09/21 07:18:07;;;;;;;4.27;3.00;;;18.30;98.00;;;;;;5012307;28;20479;-73
2023/09/21 07:20:35;;;;;;;6.20;3.20;;;18.40;98.00;;;;;;5012359;28;20455;-72
2023/09/21 07:23:03;;;;;;;9.80;3.60;;;18.40;98.00;;;;;;5012232;28;20542;-73
2023/09/21 07:25:30;;;;;;;5.10;2.97;;;18.60;98.00;;;;;;5012086;28;20828;-73
2023/09/21 07:27:58;;;;;;;4.53;3.00;;;18.70;98.00;;;;;;5011600;28;20476;-73
2023/09/21 07:30:26;;;;;;;4.30;2.90;;;18.80;98.00;;;;;;5011090;28;20444;-72
2023/09/21 07:32:55;;;;;;;4.43;3.30;;;18.80;98.00;;;;;;5012000;28;20491;-72
2023/09/21 07:35:22;;;;;;;5.03;3.10;;;18.80;98.00;;;;;;5010712;28;20505;-73
2023/09/21 07:37:51;;;;;;;4.10;3.03;;;18.90;98.00;;;;;;5011098;28;20451;-72
2023/09/21 07:40:20;;;;;;;5.27;3.43;;;19.00;98.00;;;;;;5011071;28;20451;-71
2023/09/21 07:42:48;;;;;;;6.53;3.30;;;19.00;98.00;;;;;;5010857;28;20488;-73
2023/09/21 07:45:16;;;;;;;7.00;3.73;;;19.00;98.00;;;;;;5011003;28;20498;-70
2023/09/21 07:47:45;;;;;;;5.90;3.60;;;19.00;98.00;;;;;;5010645;28;20455;-72
2023/09/21 07:50:13;;;;;;;4.97;3.60;;;19.10;98.00;;;;;;5013677;28;20455;-68
2023/09/21 07:52:40;;;;;;;5.73;3.07;;;19.30;98.00;;;;;;5014927;28;20458;-72
2023/09/21 07:55:09;;;;;;;5.10;3.30;;;19.40;98.00;;;;;;5014709;28;20448;-70
2023/09/21 07:57:37;;;;;;;6.53;3.40;;;19.60;98.00;;;;;;5014652;28;20456;-71
2023/09/21 08:00:06;;;;;;;4.83;3.20;;;19.70;98.00;;;;;;5014547;28;20478;-71
2023/09/21 08:02:33;;;;;;;4.87;2.90;;;19.80;98.00;;;;;;5014213;28;20502;-70
2023/09/21 08:05:02;;;;;;;6.47;2.93;;;19.90;98.00;;;;;;5014626;28;20466;-71
2023/09/21 08:07:36;;;;;;;4.60;3.10;;;20.00;98.00;;;;;;5014633;28;20450;-71
2023/09/21 08:10:05;;;;;;;5.20;3.30;;;20.10;98.00;;;;;;5013091;28;20458;-72
2023/09/21 08:12:34;;;;;;;3.70;2.70;;;20.10;98.00;;;;;;5014490;28;20546;-64
2023/09/21 08:15:01;;;;;;;5.27;2.73;;;20.30;98.00;;;;;;5014254;28;20933;-64
2023/09/21 08:17:30;;;;;;;4.37;2.30;;;20.60;98.00;;;;;;5014134;28;20491;-64
2023/09/21 08:19:58;;;;;;;4.53;2.87;;;20.90;98.00;;;;;;5014290;28;20945;-64
2023/09/21 08:22:26;;;;;;;11.80;2.93;;;21.10;98.00;;;;;;5014041;28;20602;-63
2023/09/21 08:24:53;;;;;;;5.07;2.70;;;21.30;98.00;;;;;;5014172;28;20525;-66
2023/09/21 08:45:56;;;;;;;8.13;2.80;;;23.40;98.00;;;;;;4992469;28;20516;-69
2023/09/21 08:48:26;;;;;;;6.50;3.43;;;23.40;98.00;;;;;;4993817;28;20511;-68
2023/09/21 08:50:55;;;;;;;4.70;2.80;;;23.50;98.00;;;;;;4994399;28;20456;-67
2023/09/21 08:53:23;;;;;;;5.37;3.40;;;23.60;98.00;;;;;;4994111;28;20496;-67
2023/09/21 08:55:52;;;;;;;3.67;2.90;;;23.50;98.00;;;;;;4994308;28;20463;-67
2023/09/21 08:58:24;;;;;;;4.03;2.70;;;23.40;98.00;;;;;;4994511;28;20544;-69
2023/09/21 09:00:56;;;;;;;5.50;3.33;;;23.40;98.00;;;;;;4994110;28;20958;-67
2023/09/21 09:03:25;;;;;;;5.73;3.30;;;23.40;98.00;;;;;;4994181;28;21005;-74
2023/09/21 09:05:55;;;;;;;5.40;3.13;;;23.40;98.00;;;;;;4994339;28;20488;-74
2023/09/21 09:08:22;;;;;;;3.90;2.90;;;23.40;98.00;;;;;;4994399;28;20825;-74
2023/09/21 09:10:50;;;;;;;5.83;3.10;;;23.40;98.00;;;;;;4994254;28;20452;-74
2023/09/21 09:13:18;;;;;;;5.10;3.20;;;23.40;98.00;;;;;;4994211;28;20456;-74
2023/09/21 09:15:45;;;;;;;4.33;3.00;;;23.30;98.00;;;;;;4994083;28;20449;-74
2023/09/21 09:18:14;;;;;;;13.73;3.20;;;23.40;98.00;;;;;;4994143;28;20886;-75
2023/09/21 09:20:44;;;;;;;5.77;3.70;;;23.30;98.00;;;;;;4993797;28;20484;-74
2023/09/21 09:23:12;;;;;;;5.00;3.27;;;23.10;98.00;;;;;;4993870;28;20508;-74
2023/09/21 09:25:40;;;;;;;4.40;3.13;;;23.10;98.00;;;;;;4993835;28;20556;-74
2023/09/21 09:28:09;;;;;;;4.60;3.30;;;23.30;98.00;;;;;;4993872;28;20877;-75
2023/09/21 09:30:38;;;;;;;5.20;3.07;;;23.70;98.00;;;;;;4993716;28;20460;-74
2023/09/21 09:33:12;;;;;;;4.70;3.30;;;23.90;98.00;;;;;;4993907;28;20464;-73
2023/09/21 09:35:42;;;;;;;4.03;2.80;;;24.00;98.00;;;;;;4992982;28;20459;-74
2023/09/21 09:38:11;;;;;;;4.10;3.10;;;24.10;98.00;;;;;;4992632;28;20488;-74
2023/09/21 09:40:42;;;;;;;5.93;3.20;;;24.30;98.00;;;;;;4993689;28;20445;-74
2023/09/21 09:43:12;;;;;;;5.07;3.10;;;24.60;98.00;;;;;;4992488;28;20531;-74
2023/09/21 09:45:40;;;;;;;8.33;3.50;;;24.80;98.00;;;;;;4992865;28;20511;-74
2023/09/21 09:48:12;;;;;;;6.63;3.47;;;25.00;98.00;;;;;;4993381;28;20460;-74
2023/09/21 09:50:42;;;;;;;6.37;3.07;;;25.40;98.00;;;;;;4992939;28;20453;-75
2023/09/21 09:53:13;;;;;;;6.40;3.30;;;25.60;98.00;;;;;;4993047;28;21062;-75
2023/09/21 09:55:42;;;;;;;6.10;3.50;;;25.80;98.00;;;;;;4992827;28;20803;-74
2023/09/21 09:58:11;;;;;;;4.00;3.10;;;25.90;98.00;;;;;;4992774;28;20544;-74
2023/09/21 10:00:41;;;;;;;6.43;3.20;;;25.90;98.00;;;;;;4992744;28;20464;-73
2023/09/21 10:03:09;;;;;;;6.17;3.53;;;25.90;98.00;;;;;;4992635;28;21024;-72
2023/09/21 10:05:37;;;;;;;5.33;3.50;;;25.80;98.00;;;;;;4992321;28;20484;-72
2023/09/21 10:08:08;;;;;;;4.20;3.03;;;25.80;98.00;;;;;;4992623;28;20456;-73
2023/09/21 10:10:42;;;;;;;5.27;3.27;;;25.90;98.00;;;;;;4992435;28;20485;-73
2023/09/21 10:13:10;;;;;;;5.47;3.47;;;25.80;98.00;;;;;;4990785;28;20507;-74
2023/09/21 10:15:37;;;;;;;3.37;2.50;;;26.10;98.00;;;;;;4992567;28;20461;-75
2023/09/21 10:18:05;;;;;;;3.70;2.83;;;26.30;98.00;;;;;;4992717;28;20456;-73
2023/09/21 10:20:33;;;;;;;3.90;2.80;;;26.40;98.00;;;;;;4992589;28;20856;-74
2023/09/21 10:23:02;;;;;;;4.73;2.60;;;26.70;98.00;;;;;;4992210;28;20480;-73
2023/09/21 10:25:39;;;;;;;4.30;2.73;;;26.80;98.00;;;;;;4991099;28;20452;-74
2023/09/21 10:28:37;;;;;;;3.73;2.50;;;26.70;94.40;;;;;;4992092;28;20465;-73
2023/09/21 10:31:27;;;;;;;3.73;2.60;;;27.10;96.30;;;;;;4992401;28;20475;-73
2023/09/21 10:34:08;;;;;;;4.30;2.70;;;27.40;95.30;;;;;;4991641;28;20515;-72
2023/09/21 10:36:40;;;;;;;3.60;2.80;;;27.40;94.10;;;;;;4991672;28;20456;-71
2023/09/21 10:39:34;;;;;;;3.73;2.90;;;27.30;95.40;;;;;;4991925;28;20460;-71
2023/09/21 10:42:36;;;;;;;4.40;2.70;;;27.30;96.80;;;;;;4992061;28;20441;-71
2023/09/21 10:45:07;;;;;;;4.43;2.83;;;27.20;95.90;;;;;;4991892;28;20494;-71
2023/09/21 10:47:42;;;;;;;5.13;3.07;;;27.40;96.20;;;;;;4992016;28;20456;-71
2023/09/21 10:50:12;;;;;;;4.60;2.97;;;27.30;96.00;;;;;;4991196;28;20459;-71
2023/09/21 10:52:41;;;;;;;4.83;2.50;;;27.30;93.80;;;;;;4991940;28;20464;-71
2023/09/21 10:55:11;;;;;;;4.27;2.70;;;27.20;93.60;;;;;;4991478;28;20456;-72
2023/09/21 10:57:42;;;;;;;3.23;2.80;;;27.20;95.10;;;;;;4990707;28;20459;-71
2023/09/21 11:00:16;;;;;;;2.50;2.13;;;27.20;95.60;;;;;;4991692;28;20488;-72
2023/09/21 11:02:46;;;;;;;3.13;2.50;;;27.20;95.20;;;;;;4991683;28;20537;-72
2023/09/21 11:05:17;;;;;;;4.67;2.80;;;27.40;94.50;;;;;;4990549;28;20880;-72
2023/09/21 11:07:45;;;;;;;4.20;2.77;;;27.60;94.50;;;;;;4991461;28;20452;-71
2023/09/21 11:10:14;;;;;;;4.50;2.60;;;27.80;95.80;;;;;;4990172;28;20465;-71
2023/09/21 11:12:44;;;;;;;4.30;2.90;;;28.10;93.20;;;;;;4991288;28;20480;-73
2023/09/21 11:15:13;;;;;;;3.60;2.57;;;28.30;94.20;;;;;;4991332;28;20460;-71
2023/09/21 11:17:42;;;;;;;3.20;2.60;;;28.60;93.40;;;;;;4990317;28;20448;-72
2023/09/21 11:20:12;;;;;;;4.70;2.80;;;29.00;91.30;;;;;;4991500;28;20484;-72
2023/09/21 11:22:40;;;;;;;4.60;3.27;;;29.30;88.70;;;;;;4991631;28;20503;-71
2023/09/21 11:25:10;;;;;;;3.40;2.90;;;29.70;87.70;;;;;;4982342;28;21022;-71
2023/09/21 11:27:38;;;;;;;5.17;2.90;;;30.00;87.10;;;;;;4976033;28;20541;-71
2023/09/21 11:30:10;;;;;;;3.90;2.80;;;30.40;86.10;;;;;;4976130;28;20541;-72
2023/09/21 11:32:43;;;;;;;4.40;2.70;;;30.50;88.10;;;;;;4975878;28;20462;-71
2023/09/21 11:35:11;;;;;;;3.63;2.93;;;30.60;86.00;;;;;;4974972;28;20548;-71
2023/09/21 11:37:38;;;;;;;3.40;2.60;;;30.70;85.70;;;;;;4975751;28;20552;-70
2023/09/21 11:40:12;;;;;;;4.40;2.93;;;30.90;84.10;;;;;;4975887;28;20491;-71
2023/09/21 11:42:44;;;;;;;4.60;2.70;;;31.20;85.30;;;;;;4975552;28;20934;-71
2023/09/21 11:45:20;;;;;;;3.87;2.70;;;31.60;83.20;;;;;;4975588;28;20583;-71
2023/09/21 11:47:48;;;;;;;3.73;2.80;;;31.90;83.90;;;;;;4975540;28;20986;-70
2023/09/21 11:50:20;;;;;;;3.53;2.63;;;32.40;81.90;;;;;;4975322;28;20842;-71
2023/09/21 11:52:50;;;;;;;3.50;2.70;;;32.80;81.30;;;;;;4975725;28;20545;-70
2023/09/21 11:55:17;;;;;;;3.07;2.53;;;32.70;80.20;;;;;;4974974;28;20468;-71
2023/09/21 11:57:45;;;;;;;2.60;2.40;;;32.70;80.80;;;;;;4976041;28;20464;-70
2023/09/21 12:00:17;;;;;;;3.50;2.80;;;32.80;81.70;;;;;;4976101;28;20460;-70
2023/09/21 12:02:48;;;;;;;6.40;2.90;;;32.90;82.50;;;;;;4975505;28;20461;-71
2023/09/21 12:05:16;;;;;;;4.17;2.80;;;33.10;80.40;;;;;;4974691;28;20490;-71
2023/09/21 12:07:47;;;;;;;3.80;2.90;;;33.30;80.70;;;;;;4974802;28;20457;-71
2023/09/21 12:10:14;;;;;;;7.00;2.70;;;33.20;80.10;;;;;;4974736;28;20465;-70
2023/09/21 12:12:42;;;;;;;3.77;2.43;;;33.20;79.50;;;;;;4975756;28;20453;-71
2023/09/21 12:15:11;;;;;;;6.00;2.87;;;33.00;80.00;;;;;;4975772;28;20456;-71
2023/09/21 12:17:38;;;;;;;3.73;2.77;;;32.60;81.60;;;;;;4975875;28;20545;-71
2023/09/21 12:20:16;;;;;;;3.37;2.70;;;32.10;80.90;;;;;;4975547;28;20457;-70
2023/09/21 12:22:43;;;;;;;4.30;2.80;;;31.50;83.10;;;;;;4974805;28;20449;-70
2023/09/21 12:25:11;;;;;;;4.10;2.83;;;30.90;84.70;;;;;;4975582;28;20481;-71
2023/09/21 12:27:38;;;;;;;4.43;3.13;;;30.60;86.70;;;;;;4975675;28;20556;-70
2023/09/21 12:30:09;;;;;;;3.40;2.80;;;30.10;86.80;;;;;;4975574;28;20493;-71
2023/09/21 12:32:38;;;;;;;3.53;2.77;;;29.90;89.70;;;;;;4975489;28;20456;-70
2023/09/21 12:35:17;;;;;;;3.60;2.97;;;29.80;88.00;;;;;;4974715;28;20450;-70
2023/09/21 12:37:45;;;;;;;3.50;2.57;;;29.70;89.30;;;;;;4974333;28;20458;-71
2023/09/21 12:40:16;;;;;;;3.67;2.77;;;29.60;90.30;;;;;;4975581;28;20484;-71
2023/09/21 12:42:45;;;;;;;3.10;2.47;;;29.40;89.10;;;;;;4975363;28;20489;-70
2023/09/21 12:45:14;;;;;;;4.27;2.83;;;29.50;91.70;;;;;;4974935;28;20485;-72
2023/09/21 12:47:42;;;;;;;3.10;2.63;;;29.70;92.40;;;;;;4974525;28;20465;-72
2023/09/21 12:50:12;;;;;;;3.80;3.00;;;29.60;90.10;;;;;;4987433;28;20503;-72
2023/09/21 12:52:41;;;;;;;4.43;2.97;;;29.50;90.10;;;;;;4994070;28;20452;-73
2023/09/21 12:55:09;;;;;;;3.17;2.60;;;29.50;89.90;;;;;;4993889;28;20978;-72
2023/09/21 12:57:38;;;;;;;3.23;2.47;;;29.50;89.10;;;;;;4993727;28;20813;-72
2023/09/21 13:00:13;;;;;;;4.10;2.90;;;29.70;88.70;;;;;;4994034;28;20456;-72
2023/09/21 13:02:43;;;;;;;3.67;2.80;;;30.00;88.00;;;;;;4993741;28;20651;-72
2023/09/21 13:05:12;;;;;;;4.07;2.73;;;30.50;86.20;;;;;;4993753;28;20904;-73
2023/09/21 13:07:40;;;;;;;2.90;2.50;;;31.00;86.30;;;;;;4993892;28;20461;-71
2023/09/21 13:10:07;;;;;;;3.57;2.80;;;31.30;84.00;;;;;;4994102;28;20467;-71
2023/09/21 13:12:35;;;;;;;3.93;2.83;;;31.30;83.80;;;;;;4994450;28;20452;-72
2023/09/21 13:15:04;;;;;;;4.10;2.70;;;31.50;85.00;;;;;;4994404;28;20453;-72
2023/09/21 13:17:31;;;;;;;3.40;2.87;;;31.60;83.00;;;;;;4993703;28;20459;-72